createdAt,value
2023-02-17T00:00:53.576Z,100066.06
2023-02-17T00:03:18.889Z,100058.69
2023-02-17T00:04:29.072Z,100066.02
2023-02-17T00:05:42.116Z,100064.22
2023-02-17T00:06:50.905Z,100059.86
2023-02-17T00:08:00.384Z,100065.11
2023-02-17T00:09:08.893Z,100059.81
2023-02-17T00:10:20.428Z,100063.26
2023-02-17T00:11:29.419Z,100056.20
2023-02-17T00:12:40.583Z,100057.05
2023-02-17T00:15:06.597Z,100052.20
2023-02-17T00:16:19.782Z,100057.00
2023-02-17T00:17:30.336Z,100055.19
2023-02-17T00:18:39.726Z,100055.23
2023-02-17T00:19:48.255Z,100053.39
2023-02-17T00:20:57.798Z,100052.61
2023-02-17T00:22:07.262Z,100049.11
2023-02-17T00:23:16.618Z,100049.96
2023-02-17T00:24:29.513Z,100054.41
2023-02-17T00:25:39.596Z,100057.96
2023-02-17T00:26:49.924Z,100057.96
2023-02-17T00:28:00.853Z,100050.95
2023-02-17T00:29:10.511Z,100054.46
2023-02-17T00:30:20.558Z,100054.46
2023-02-17T00:31:29.183Z,100055.37
2023-02-17T00:33:56.613Z,100050.52
2023-02-17T00:35:07.232Z,100051.70
2023-02-17T00:37:35.829Z,100041.47
2023-02-17T00:38:46.018Z,100046.16
2023-02-17T00:41:11.110Z,100036.86
2023-02-17T00:42:19.737Z,100039.90
2023-02-17T00:43:30.641Z,100036.25
2023-02-17T00:44:39.047Z,100037.20
2023-02-17T00:45:47.898Z,100035.40
2023-02-17T00:46:57.135Z,100027.34
2023-02-17T00:48:05.776Z,100025.58
2023-02-17T00:49:20.921Z,100029.02
2023-02-17T00:50:32.244Z,100026.38
2023-02-17T00:51:42.631Z,100018.42
2023-02-17T00:52:52.004Z,100020.16
2023-02-17T00:54:01.456Z,100013.95
2023-02-17T00:55:11.107Z,100012.16
2023-02-17T00:56:21.741Z,100011.31
2023-02-17T00:57:32.839Z,100004.21
2023-02-17T00:58:43.879Z,100005.95
2023-02-17T00:59:53.442Z,100011.19
2023-02-17T01:01:02.622Z,100001.56
2023-02-17T01:03:27.954Z,100005.61
2023-02-17T01:04:37.399Z,100011.31
2023-02-17T01:05:48.280Z,100007.72
2023-02-17T01:06:57.579Z,100007.77
2023-02-17T01:08:06.083Z,100005.12
2023-02-17T01:09:17.121Z,100003.36
2023-02-17T01:10:27.573Z,100007.77
2023-02-17T01:11:38.013Z,100006.06
2023-02-17T01:12:46.937Z,100001.73
2023-02-17T01:13:57.215Z,100007.03
2023-02-17T01:15:09.667Z,99995.55
2023-02-17T01:17:42.307Z,99989.88
2023-02-17T01:18:50.937Z,99994.70
2023-02-17T01:20:01.521Z,99999.94
2023-02-17T01:22:38.231Z,99994.09
2023-02-17T01:25:07.717Z,99979.81
2023-02-17T01:26:22.067Z,99976.58
2023-02-17T01:27:31.740Z,99984.47
2023-02-17T01:28:40.740Z,99987.06
2023-02-17T01:29:49.673Z,99981.73
2023-02-17T01:30:59.410Z,99983.44
2023-02-17T01:32:08.250Z,99984.20
2023-02-17T01:33:17.269Z,99977.94
2023-02-17T01:34:27.801Z,99979.67
2023-02-17T01:35:38.443Z,99979.61
2023-02-17T01:36:47.333Z,99979.55
2023-02-17T01:37:55.892Z,99973.31
2023-02-17T01:39:05.610Z,99974.92
2023-02-17T01:40:17.470Z,99978.34
2023-02-17T01:42:43.263Z,99969.17
2023-02-17T01:44:23.396Z,99974.98
2023-02-17T01:47:17.354Z,99975.24
2023-02-17T01:49:50.792Z,99976.86
2023-02-17T01:51:08.445Z,99970.06
2023-02-17T01:55:05.013Z,99972.83
2023-02-17T01:56:17.052Z,99972.32
2023-02-17T01:57:30.214Z,99967.74
2023-02-17T01:58:44.041Z,99975.58
2023-02-17T02:01:10.499Z,99979.38
2023-02-17T02:02:20.290Z,99977.09
2023-02-17T02:03:33.377Z,99973.44
2023-02-17T02:04:45.520Z,99977.83
2023-02-17T02:05:55.556Z,99976.98
2023-02-17T02:08:23.456Z,99970.31
2023-02-17T02:09:45.657Z,99976.85
2023-02-17T02:10:55.516Z,99972.34
2023-02-17T02:12:19.733Z,99985.56
2023-02-17T02:13:28.881Z,99981.17
2023-02-17T02:14:37.972Z,99973.16
2023-02-17T02:17:15.603Z,99977.01
2023-02-17T02:21:50.609Z,99984.15
2023-02-17T02:23:21.554Z,99991.66
2023-02-17T02:28:06.520Z,99978.91
2023-02-17T02:29:43.233Z,99988.16
2023-02-17T02:31:25.230Z,99989.07
2023-02-17T02:32:42.089Z,99985.56
2023-02-17T02:33:56.268Z,99985.56
2023-02-17T02:35:12.266Z,99984.74
2023-02-17T02:36:44.086Z,99988.31
2023-02-17T02:38:00.522Z,99990.05
2023-02-17T02:40:32.893Z,99989.64
2023-02-17T02:43:24.979Z,99986.08
2023-02-17T02:44:34.940Z,99987.45
2023-02-17T02:45:44.566Z,99987.52
2023-02-17T02:48:20.514Z,99981.88
2023-02-17T02:49:32.761Z,99981.39
2023-02-17T02:50:55.021Z,99983.26
2023-02-17T02:53:54.332Z,99983.64
2023-02-17T02:55:11.152Z,99997.30
2023-02-17T02:56:25.264Z,99988.50
2023-02-17T02:57:43.958Z,99992.00
2023-02-17T03:00:29.457Z,99986.70
2023-02-17T03:02:00.047Z,99989.78
2023-02-17T03:04:52.969Z,99982.55
2023-02-17T03:07:51.749Z,99980.60
2023-02-17T03:09:14.414Z,99991.98
2023-02-17T03:10:24.493Z,99989.62
2023-02-17T03:11:33.731Z,99988.09
2023-02-17T03:12:44.615Z,99990.71
2023-02-17T03:13:54.356Z,99994.09
2023-02-17T03:16:33.838Z,99981.82
2023-02-17T03:17:44.733Z,99983.83
2023-02-17T03:18:54.688Z,99987.39
2023-02-17T03:21:20.158Z,99979.69
2023-02-17T03:23:48.456Z,99988.11
2023-02-17T03:26:14.732Z,99985.05
2023-02-17T03:27:24.416Z,99975.70
2023-02-17T03:28:33.520Z,99978.59
2023-02-17T03:29:43.776Z,99977.95
2023-02-17T03:30:54.763Z,99989.53
2023-02-17T03:32:04.765Z,99982.61
2023-02-17T03:34:30.220Z,99977.83
2023-02-17T03:35:39.862Z,99975.45
2023-02-17T03:36:50.631Z,99982.67
2023-02-17T03:38:00.623Z,99977.81
2023-02-17T03:39:09.680Z,99976.91
2023-02-17T03:41:34.970Z,99975.52
2023-02-17T03:42:43.506Z,99989.19
2023-02-17T03:43:52.591Z,99989.12
2023-02-17T03:45:01.098Z,99984.47
2023-02-17T03:46:12.510Z,99989.53
2023-02-17T03:47:22.821Z,99981.45
2023-02-17T03:48:32.242Z,99991.94
2023-02-17T03:49:41.772Z,99991.94
2023-02-17T03:50:50.868Z,99986.48
2023-02-17T03:52:00.535Z,99986.37
2023-02-17T03:53:11.427Z,99985.39
2023-02-17T03:54:20.889Z,99978.29
2023-02-17T03:56:46.325Z,99978.52
2023-02-17T03:57:56.077Z,99985.91
2023-02-17T03:59:06.749Z,99982.28
2023-02-17T04:00:18.409Z,99983.01
2023-02-17T04:01:28.160Z,99990.11
2023-02-17T04:02:37.669Z,99988.44
2023-02-17T04:05:02.960Z,99984.62
2023-02-17T04:06:13.122Z,99992.13
2023-02-17T04:08:38.992Z,99988.82
2023-02-17T04:09:48.113Z,99991.78
2023-02-17T04:11:00.813Z,99981.97
2023-02-17T04:12:10.376Z,99989.92
2023-02-17T04:13:20.316Z,99996.11
2023-02-17T04:14:29.741Z,99995.98
2023-02-17T04:15:38.885Z,100000.37
2023-02-17T04:16:48.698Z,99994.09
2023-02-17T04:17:57.789Z,99997.54
2023-02-17T04:19:08.069Z,99992.30
2023-02-17T04:20:17.906Z,99991.45
2023-02-17T04:21:27.590Z,99996.78
2023-02-17T04:22:37.679Z,99990.75
2023-02-17T04:25:01.475Z,99991.45
2023-02-17T04:26:11.636Z,99992.70
2023-02-17T04:28:40.591Z,99985.06
2023-02-17T04:29:51.400Z,99992.48
2023-02-17T04:31:02.319Z,99992.36
2023-02-17T04:32:11.029Z,99993.97
2023-02-17T04:33:19.574Z,99999.22
2023-02-17T04:34:29.466Z,99993.02
2023-02-17T04:35:38.853Z,100002.78
2023-02-17T04:36:48.820Z,99999.34
2023-02-17T04:37:57.950Z,99999.43
2023-02-17T04:40:23.664Z,99992.93
2023-02-17T04:41:32.551Z,99999.43
2023-02-17T04:42:42.114Z,99999.41
2023-02-17T04:45:07.329Z,99996.15
2023-02-17T04:46:17.093Z,100008.84
2023-02-17T04:47:26.314Z,100006.92
2023-02-17T04:48:35.925Z,99997.98
2023-02-17T04:49:45.618Z,100010.20
2023-02-17T04:52:09.161Z,100001.70
2023-02-17T04:53:21.742Z,100007.36
2023-02-17T04:55:49.251Z,100004.16
2023-02-17T04:56:58.547Z,100017.88
2023-02-17T04:58:08.924Z,100016.14
2023-02-17T04:59:17.467Z,100004.70
2023-02-17T05:00:26.774Z,100011.03
2023-02-17T05:02:51.800Z,100013.68
2023-02-17T05:04:01.395Z,100016.81
2023-02-17T05:05:12.179Z,100015.07
2023-02-17T05:06:21.267Z,100022.17
2023-02-17T05:07:31.308Z,100019.80
2023-02-17T05:09:57.025Z,100021.69
2023-02-17T05:11:07.450Z,100021.62
2023-02-17T05:12:16.984Z,100021.69
2023-02-17T05:13:27.568Z,100020.31
2023-02-17T05:14:36.866Z,100029.23
2023-02-17T05:15:47.304Z,100029.23
2023-02-17T05:18:12.463Z,100021.99
2023-02-17T05:20:37.532Z,100029.77
2023-02-17T05:21:47.179Z,100034.54
2023-02-17T05:22:57.448Z,100038.16
2023-02-17T05:25:42.720Z,100030.73
2023-02-17T05:26:52.122Z,100042.49
2023-02-17T05:29:16.258Z,100037.66
2023-02-17T05:31:41.047Z,100044.00
2023-02-17T05:32:49.854Z,100040.34
2023-02-17T05:33:59.033Z,100035.03
2023-02-17T05:35:09.185Z,100041.25
2023-02-17T05:36:19.095Z,100044.67
2023-02-17T05:38:45.429Z,100047.73
2023-02-17T05:39:54.471Z,100052.48
2023-02-17T05:42:20.463Z,100048.28
2023-02-17T05:43:30.219Z,100052.92
2023-02-17T05:44:39.718Z,100056.41
2023-02-17T05:45:48.968Z,100057.20
2023-02-17T05:46:58.086Z,100047.37
2023-02-17T05:48:07.198Z,100057.25
2023-02-17T05:49:16.734Z,100052.75
2023-02-17T05:50:30.589Z,100054.37
2023-02-17T05:51:41.114Z,100060.45
2023-02-17T05:52:52.146Z,100059.59
2023-02-17T05:54:00.660Z,100066.34
2023-02-17T05:55:09.294Z,100064.59
2023-02-17T05:56:19.433Z,100063.87
2023-02-17T05:57:28.093Z,100065.85
2023-02-17T05:58:37.230Z,100070.18
2023-02-17T05:59:47.805Z,100066.28
2023-02-17T06:00:57.188Z,100075.31
2023-02-17T06:03:20.806Z,100073.59
2023-02-17T06:05:47.138Z,100076.81
2023-02-17T06:06:56.235Z,100071.68
2023-02-17T06:08:05.143Z,100070.63
2023-02-17T06:09:13.660Z,100074.30
2023-02-17T06:10:22.676Z,100075.41
2023-02-17T06:11:31.425Z,100069.83
2023-02-17T06:12:40.746Z,100071.22
2023-02-17T06:13:50.043Z,100080.41
2023-02-17T06:15:01.660Z,100080.04
2023-02-17T06:16:10.801Z,100085.02
2023-02-17T06:17:19.321Z,100079.72
2023-02-17T06:18:28.104Z,100082.31
2023-02-17T06:19:38.902Z,100082.26
2023-02-17T06:20:48.674Z,100080.09
2023-02-17T06:22:00.379Z,100082.09
2023-02-17T06:23:09.557Z,100082.03
2023-02-17T06:24:19.098Z,100091.66
2023-02-17T06:25:29.730Z,100090.87
2023-02-17T06:26:38.469Z,100086.36
2023-02-17T06:29:03.156Z,100092.06
2023-02-17T06:30:14.392Z,100102.48
2023-02-17T06:32:39.217Z,100103.81
2023-02-17T06:33:48.493Z,100102.23
2023-02-17T06:34:57.427Z,100105.50
2023-02-17T06:36:08.888Z,100101.92
2023-02-17T06:38:33.858Z,100093.21
2023-02-17T06:39:42.856Z,100112.05
2023-02-17T06:40:52.531Z,100097.51
2023-02-17T06:43:16.152Z,100102.07
2023-02-17T06:44:25.295Z,100107.64
2023-02-17T06:45:34.824Z,100112.78
2023-02-17T06:46:46.450Z,100109.00
2023-02-17T06:47:55.076Z,100111.52
2023-02-17T06:49:04.440Z,100114.91
2023-02-17T06:51:31.248Z,100106.71
2023-02-17T06:52:41.050Z,100116.04
2023-02-17T06:53:49.932Z,100119.15
2023-02-17T06:54:59.504Z,100116.31
2023-02-17T06:56:08.955Z,100128.77
2023-02-17T06:58:35.329Z,100113.85
2023-02-17T06:59:45.507Z,100119.39
2023-02-17T07:00:55.377Z,100122.03
2023-02-17T07:02:05.436Z,100119.37
2023-02-17T07:03:14.109Z,100118.48
2023-02-17T07:04:23.098Z,100122.22
2023-02-17T07:05:38.161Z,100124.98
2023-02-17T07:06:47.826Z,100125.93
2023-02-17T07:08:00.324Z,100128.47
2023-02-17T07:09:12.833Z,100125.63
2023-02-17T07:10:23.376Z,100130.69
2023-02-17T07:12:47.559Z,100125.11
2023-02-17T07:13:56.390Z,100133.97
2023-02-17T07:16:21.208Z,100126.91
2023-02-17T07:17:31.029Z,100137.34
2023-02-17T07:18:45.514Z,100139.20
2023-02-17T07:19:55.182Z,100137.22
2023-02-17T07:21:05.972Z,100145.69
2023-02-17T07:22:16.495Z,100144.41
2023-02-17T07:23:25.609Z,100143.25
2023-02-17T07:24:34.619Z,100142.52
2023-02-17T07:25:44.156Z,100146.16
2023-02-17T07:26:55.910Z,100136.21
2023-02-17T07:29:20.180Z,100137.00
2023-02-17T07:30:29.175Z,100146.00
2023-02-17T07:31:39.017Z,100143.98
2023-02-17T07:32:47.812Z,100147.43
2023-02-17T07:33:56.618Z,100146.58
2023-02-17T07:36:28.775Z,100141.61
2023-02-17T07:37:38.078Z,100148.38
2023-02-17T07:38:47.158Z,100142.77
2023-02-17T07:39:57.250Z,100148.97
2023-02-17T07:42:27.083Z,100147.31
2023-02-17T07:43:37.015Z,100150.70
2023-02-17T07:46:01.611Z,100147.06
2023-02-17T07:47:10.262Z,100148.80
2023-02-17T07:48:19.384Z,100150.44
2023-02-17T07:49:28.154Z,100146.47
2023-02-17T07:51:52.919Z,100141.87
2023-02-17T07:53:02.408Z,100137.34
2023-02-17T07:54:13.208Z,100138.37
2023-02-17T07:55:21.628Z,100143.55
2023-02-17T07:56:31.891Z,100142.65
2023-02-17T07:58:56.343Z,100147.19
2023-02-17T08:00:08.639Z,100148.21
2023-02-17T08:01:23.449Z,100150.52
2023-02-17T08:02:32.970Z,100155.58
2023-02-17T08:03:42.518Z,100150.34
2023-02-17T08:04:52.233Z,100151.96
2023-02-17T08:06:01.814Z,100152.64
2023-02-17T08:07:10.480Z,100147.32
2023-02-17T08:08:37.734Z,100150.71
2023-02-17T08:10:05.620Z,100142.70
2023-02-17T08:13:00.727Z,100148.34
2023-02-17T08:14:11.554Z,100152.22
2023-02-17T08:15:21.165Z,100148.77
2023-02-17T08:17:44.931Z,100142.86
2023-02-17T08:18:57.691Z,100140.59
2023-02-17T08:20:09.564Z,100150.17
2023-02-17T08:21:20.315Z,100152.76
2023-02-17T08:22:29.871Z,100152.22
2023-02-17T08:23:39.033Z,100160.58
2023-02-17T08:24:49.241Z,100158.97
2023-02-17T08:25:59.796Z,100166.30
2023-02-17T08:27:09.363Z,100169.69
2023-02-17T08:28:18.383Z,100168.84
2023-02-17T08:29:28.178Z,100161.68
2023-02-17T08:30:39.468Z,100164.67
2023-02-17T08:31:52.006Z,100166.32
2023-02-17T08:33:02.129Z,100170.66
2023-02-17T08:34:13.544Z,100166.98
2023-02-17T08:35:22.677Z,100163.37
2023-02-17T08:36:33.253Z,100168.53
2023-02-17T08:37:43.276Z,100171.02
2023-02-17T08:38:54.076Z,100177.92
2023-02-17T08:41:33.778Z,100163.97
2023-02-17T08:42:43.147Z,100170.30
2023-02-17T08:43:53.075Z,100169.10
2023-02-17T08:45:03.521Z,100169.88
2023-02-17T08:46:14.008Z,100176.14
2023-02-17T08:48:40.142Z,100172.05
2023-02-17T08:49:48.771Z,100182.91
2023-02-17T08:50:57.585Z,100178.80
2023-02-17T08:52:06.680Z,100177.03
2023-02-17T08:53:15.738Z,100189.03
2023-02-17T08:54:24.829Z,100182.95
2023-02-17T08:55:48.557Z,100192.03
2023-02-17T08:56:48.741Z,100193.61
2023-02-17T08:57:57.341Z,100192.70
2023-02-17T09:00:44.188Z,100189.41
2023-02-17T09:01:55.077Z,100204.66
2023-02-17T09:03:03.846Z,100201.81
2023-02-17T09:04:14.771Z,100202.42
2023-02-17T09:05:26.096Z,100199.48
2023-02-17T09:07:54.082Z,100194.45
2023-02-17T09:09:05.491Z,100193.80
2023-02-17T09:11:30.391Z,100197.64
2023-02-17T09:12:39.934Z,100193.60
2023-02-17T09:13:48.507Z,100193.48
2023-02-17T09:14:57.020Z,100201.27
2023-02-17T09:16:06.990Z,100203.98
2023-02-17T09:17:16.715Z,100193.60
2023-02-17T09:18:26.534Z,100200.67
2023-02-17T09:19:40.429Z,100203.39
2023-02-17T09:20:49.555Z,100203.33
2023-02-17T09:23:13.475Z,100200.71
2023-02-17T09:24:22.220Z,100196.67
2023-02-17T09:26:46.576Z,100196.23
2023-02-17T09:27:55.509Z,100214.28
2023-02-17T09:29:04.973Z,100196.55
2023-02-17T09:30:15.195Z,100206.26
2023-02-17T09:31:26.263Z,100207.11
2023-02-17T09:32:36.413Z,100209.34
2023-02-17T09:33:48.193Z,100205.84
2023-02-17T09:35:00.290Z,100209.41
2023-02-17T09:37:28.947Z,100202.57
2023-02-17T09:38:40.984Z,100207.49
2023-02-17T09:39:49.878Z,100210.37
2023-02-17T09:42:24.848Z,100208.02
2023-02-17T09:43:34.761Z,100198.56
2023-02-17T09:44:47.755Z,100201.92
2023-02-17T09:47:22.891Z,100195.28
2023-02-17T09:48:34.058Z,100201.39
2023-02-17T09:49:44.660Z,100202.41
2023-02-17T09:52:28.829Z,100195.91
2023-02-17T09:55:13.120Z,100194.02
2023-02-17T09:59:16.636Z,100200.06
2023-02-17T10:00:29.080Z,100204.22
2023-02-17T10:01:40.291Z,100205.27
2023-02-17T10:03:08.495Z,100210.58
2023-02-17T10:05:54.788Z,100197.70
2023-02-17T10:07:19.655Z,100199.82
2023-02-17T10:08:52.981Z,100197.97
2023-02-17T10:11:41.368Z,100200.77
2023-02-17T10:12:54.278Z,100205.38
2023-02-17T10:14:23.164Z,100202.57
2023-02-17T10:16:56.888Z,100200.14
2023-02-17T10:19:53.455Z,100199.98
2023-02-17T10:21:09.954Z,100206.39
2023-02-17T10:22:23.438Z,100198.44
2023-02-17T10:25:19.548Z,100193.52
2023-02-17T10:26:50.245Z,100194.80
2023-02-17T10:31:10.539Z,100198.06
2023-02-17T10:32:25.961Z,100196.75
2023-02-17T10:35:19.956Z,100191.72
2023-02-17T10:36:42.435Z,100194.80
2023-02-17T10:37:57.995Z,100200.26
2023-02-17T10:40:50.615Z,100193.70
2023-02-17T10:42:01.803Z,100193.27
2023-02-17T10:43:13.091Z,100192.48
2023-02-17T10:44:25.085Z,100189.06
2023-02-17T10:45:44.698Z,100194.37
2023-02-17T10:46:55.627Z,100193.33
2023-02-17T10:48:07.004Z,100197.61
2023-02-17T10:50:39.910Z,100191.66
2023-02-17T10:51:48.326Z,100194.73
2023-02-17T10:55:40.400Z,100198.52
2023-02-17T10:56:52.882Z,100199.73
2023-02-17T10:58:05.943Z,100197.02
2023-02-17T11:00:34.537Z,100196.23
2023-02-17T11:01:44.056Z,100197.52
2023-02-17T11:02:53.740Z,100205.38
2023-02-17T11:04:12.937Z,100201.66
2023-02-17T11:05:24.003Z,100200.56
2023-02-17T11:07:59.069Z,100197.98
2023-02-17T11:09:20.787Z,100206.27
2023-02-17T11:10:39.028Z,100203.74
2023-02-17T11:13:29.173Z,100200.78
2023-02-17T11:14:40.357Z,100202.91
2023-02-17T11:15:49.070Z,100203.68
2023-02-17T11:17:01.247Z,100204.35
2023-02-17T11:18:19.903Z,100211.65
2023-02-17T11:19:37.362Z,100199.04
2023-02-17T11:20:48.430Z,100201.61
2023-02-17T11:22:00.258Z,100197.09
2023-02-17T11:23:24.546Z,100195.32
2023-02-17T11:24:35.491Z,100201.48
2023-02-17T11:27:12.082Z,100197.39
2023-02-17T11:29:39.147Z,100200.33
2023-02-17T11:30:55.813Z,100203.31
2023-02-17T11:32:08.257Z,100198.77
2023-02-17T11:33:39.277Z,100200.57
2023-02-17T11:34:49.531Z,100198.70
2023-02-17T11:35:59.796Z,100195.26
2023-02-17T11:37:13.038Z,100196.30
2023-02-17T11:39:56.523Z,100196.94
2023-02-17T11:41:07.773Z,100201.88
2023-02-17T11:42:26.033Z,100200.05
2023-02-17T11:44:54.191Z,100201.36
2023-02-17T11:46:13.058Z,100200.91
2023-02-17T11:47:59.162Z,100199.10
2023-02-17T11:50:58.057Z,100192.35
2023-02-17T11:54:02.239Z,100190.46
2023-02-17T11:55:21.062Z,100200.57
2023-02-17T11:56:36.158Z,100195.13
2023-02-17T11:57:51.809Z,100197.61
2023-02-17T11:59:24.099Z,100194.95
2023-02-17T12:00:44.630Z,100195.92
2023-02-17T12:05:13.357Z,100185.77
2023-02-17T12:08:25.350Z,100197.39
2023-02-17T12:11:20.706Z,100194.95
2023-02-17T12:14:21.676Z,100191.59
2023-02-17T12:17:07.338Z,100197.78
2023-02-17T12:20:02.063Z,100187.75
2023-02-17T12:21:23.873Z,100200.38
2023-02-17T12:22:55.839Z,100189.23
2023-02-17T12:24:25.556Z,100196.34
2023-02-17T12:27:31.748Z,100193.63
2023-02-17T12:30:25.304Z,100185.14
2023-02-17T12:31:52.927Z,100190.66
2023-02-17T12:34:45.059Z,100178.32
2023-02-17T12:37:26.058Z,100180.64
2023-02-17T12:39:58.423Z,100195.59
2023-02-17T12:42:33.879Z,100188.66
2023-02-17T12:43:49.181Z,100204.92
2023-02-17T12:46:24.618Z,100191.91
2023-02-17T12:47:49.053Z,100199.41
2023-02-17T12:49:29.706Z,100197.61
2023-02-17T12:50:51.818Z,100193.27
2023-02-17T12:53:32.620Z,100195.92
2023-02-17T12:54:53.882Z,100200.65
2023-02-17T12:57:48.878Z,100199.28
2023-02-17T12:59:22.358Z,100195.34
2023-02-17T13:00:38.136Z,100200.71
2023-02-17T13:01:56.918Z,100193.10
2023-02-17T13:03:06.381Z,100200.30
2023-02-17T13:04:19.460Z,100193.25
2023-02-17T13:05:50.596Z,100193.19
2023-02-17T13:07:23.652Z,100192.16
2023-02-17T13:08:38.775Z,100198.30
2023-02-17T13:09:52.320Z,100192.02
2023-02-17T13:12:27.266Z,100182.89
2023-02-17T13:13:36.206Z,100190.45
2023-02-17T13:14:48.476Z,100197.52
2023-02-17T13:16:14.621Z,100189.50
2023-02-17T13:17:29.850Z,100190.27
2023-02-17T13:18:41.853Z,100197.08
2023-02-17T13:20:13.363Z,100194.37
2023-02-17T13:21:27.548Z,100195.13
2023-02-17T13:22:43.626Z,100198.49
2023-02-17T13:25:32.049Z,100190.92
2023-02-17T13:26:43.060Z,100188.73
2023-02-17T13:27:53.012Z,100194.89
2023-02-17T13:29:25.214Z,100188.84
2023-02-17T13:30:45.305Z,100184.91
2023-02-17T13:31:58.390Z,100193.48
2023-02-17T13:33:22.906Z,100191.62
2023-02-17T13:34:37.286Z,100187.27
2023-02-17T13:35:47.595Z,100188.97
2023-02-17T13:36:58.134Z,100183.66
2023-02-17T13:38:10.671Z,100189.86
2023-02-17T13:40:47.727Z,100185.08
2023-02-17T13:41:59.451Z,100191.80
2023-02-17T13:44:35.693Z,100187.84
2023-02-17T13:48:42.334Z,100186.02
2023-02-17T13:51:12.865Z,100190.12
2023-02-17T13:52:28.669Z,100195.00
2023-02-17T13:53:40.330Z,100189.52
2023-02-17T13:55:00.765Z,100189.34
2023-02-17T13:56:13.406Z,100190.97
2023-02-17T13:58:41.856Z,100193.90
2023-02-17T13:59:50.384Z,100191.48
2023-02-17T14:01:00.577Z,100186.05
2023-02-17T14:02:16.162Z,100187.80
2023-02-17T14:03:32.012Z,100193.42
2023-02-17T14:04:42.396Z,100192.83
2023-02-17T14:07:11.988Z,100191.86
2023-02-17T14:08:26.086Z,100192.18
2023-02-17T14:09:36.523Z,100191.20
2023-02-17T14:10:45.989Z,100195.48
2023-02-17T14:11:56.844Z,100195.60
2023-02-17T14:13:08.202Z,100196.34
2023-02-17T14:14:17.821Z,100195.00
2023-02-17T14:16:47.896Z,100197.48
2023-02-17T14:17:56.785Z,100202.08
2023-02-17T14:19:09.186Z,100201.22
2023-02-17T14:22:01.392Z,100190.23
2023-02-17T14:23:15.215Z,100193.15
2023-02-17T14:24:27.837Z,100200.42
2023-02-17T14:25:39.672Z,100204.13
2023-02-17T14:27:01.753Z,100198.80
2023-02-17T14:28:25.203Z,100204.05
2023-02-17T14:31:12.195Z,100194.58
2023-02-17T14:32:31.036Z,100205.44
2023-02-17T14:33:39.903Z,100200.08
2023-02-17T14:34:49.620Z,100200.20
2023-02-17T14:36:09.486Z,100199.28
2023-02-17T14:38:41.046Z,100190.30
2023-02-17T14:39:50.470Z,100198.33
2023-02-17T14:41:00.702Z,100192.97
2023-02-17T14:42:10.112Z,100199.05
2023-02-17T14:43:18.935Z,100191.03
2023-02-17T14:45:43.173Z,100199.65
2023-02-17T14:48:08.251Z,100197.70
2023-02-17T14:49:17.538Z,100204.10
2023-02-17T14:50:27.343Z,100202.28
2023-02-17T14:51:38.951Z,100207.36
2023-02-17T14:54:15.970Z,100199.70
2023-02-17T14:57:03.143Z,100191.92
2023-02-17T14:59:37.667Z,100198.82
2023-02-17T15:00:49.978Z,100202.78
2023-02-17T15:03:14.678Z,100195.31
2023-02-17T15:04:23.780Z,100197.53
2023-02-17T15:06:50.584Z,100199.22
2023-02-17T15:09:22.858Z,100202.00
2023-02-17T15:10:33.474Z,100203.30
2023-02-17T15:11:45.160Z,100211.15
2023-02-17T15:12:55.395Z,100211.15
2023-02-17T15:15:21.651Z,100212.61
2023-02-17T15:16:30.865Z,100205.95
2023-02-17T15:17:39.594Z,100204.27
2023-02-17T15:18:50.095Z,100200.77
2023-02-17T15:20:00.185Z,100207.83
2023-02-17T15:22:27.291Z,100207.03
2023-02-17T15:23:37.663Z,100208.84
2023-02-17T15:24:46.364Z,100216.91
2023-02-17T15:25:56.481Z,100204.51
2023-02-17T15:28:26.828Z,100203.02
2023-02-17T15:29:36.266Z,100213.00
2023-02-17T15:30:53.489Z,100208.50
2023-02-17T15:33:24.284Z,100209.88
2023-02-17T15:34:34.627Z,100214.58
2023-02-17T15:35:44.136Z,100218.08
2023-02-17T15:36:54.106Z,100210.13
2023-02-17T15:38:02.872Z,100206.67
2023-02-17T15:39:13.694Z,100200.59
2023-02-17T15:41:43.044Z,100200.48
2023-02-17T15:42:56.296Z,100208.05
2023-02-17T15:44:06.949Z,100209.06
2023-02-17T15:45:19.706Z,100209.19
2023-02-17T15:47:50.754Z,100210.53
2023-02-17T15:50:19.228Z,100206.14
2023-02-17T15:51:27.936Z,100212.63
2023-02-17T15:52:36.779Z,100208.17
2023-02-17T15:53:46.493Z,100209.06
2023-02-17T15:54:55.138Z,100211.77
2023-02-17T15:57:25.260Z,100204.38
2023-02-17T15:58:36.667Z,100213.58
2023-02-17T15:59:45.379Z,100204.78
2023-02-17T16:00:59.771Z,100205.63
2023-02-17T16:03:26.951Z,100193.77
2023-02-17T16:04:36.997Z,100202.13
2023-02-17T16:05:46.272Z,100199.66
2023-02-17T16:06:56.617Z,100203.25
2023-02-17T16:08:06.651Z,100201.56
2023-02-17T16:09:15.907Z,100202.58
2023-02-17T16:10:27.297Z,100208.00
2023-02-17T16:11:40.269Z,100202.70
2023-02-17T16:12:51.606Z,100204.50
2023-02-17T16:14:00.852Z,100200.89
2023-02-17T16:15:18.951Z,100200.78
2023-02-17T16:17:49.070Z,100196.16
2023-02-17T16:19:00.124Z,100200.03
2023-02-17T16:21:31.264Z,100186.33
2023-02-17T16:22:42.433Z,100195.59
2023-02-17T16:23:53.200Z,100195.75
2023-02-17T16:25:04.466Z,100195.88
2023-02-17T16:26:33.447Z,100185.44
2023-02-17T16:28:59.982Z,100187.13
2023-02-17T16:30:24.345Z,100196.36
2023-02-17T16:31:35.016Z,100191.11
2023-02-17T16:32:46.361Z,100194.55
2023-02-17T16:33:57.295Z,100195.50
2023-02-17T16:35:06.166Z,100190.27
2023-02-17T16:37:35.210Z,100187.30
2023-02-17T16:38:45.066Z,100189.47
2023-02-17T16:39:53.730Z,100186.04
2023-02-17T16:41:02.967Z,100183.44
2023-02-17T16:42:15.345Z,100183.44
2023-02-17T16:44:43.887Z,100182.94
2023-02-17T16:45:58.470Z,100187.68
2023-02-17T16:47:11.857Z,100182.48
2023-02-17T16:48:25.134Z,100184.33
2023-02-17T16:49:38.083Z,100182.64
2023-02-17T16:50:46.701Z,100184.50
2023-02-17T16:51:55.323Z,100179.26
2023-02-17T16:53:08.210Z,100178.52
2023-02-17T16:54:18.038Z,100184.83
2023-02-17T16:55:30.446Z,100181.38
2023-02-17T16:58:02.619Z,100183.65
2023-02-17T16:59:17.013Z,100188.41
2023-02-17T17:00:31.021Z,100179.63
2023-02-17T17:01:41.130Z,100180.59
2023-02-17T17:02:51.215Z,100177.08
2023-02-17T17:03:59.902Z,100183.28
2023-02-17T17:05:10.158Z,100180.63
2023-02-17T17:06:23.312Z,100177.13
2023-02-17T17:07:32.644Z,100180.63
2023-02-17T17:08:41.188Z,100172.69
2023-02-17T17:10:14.838Z,100174.53
2023-02-17T17:11:01.192Z,100178.94
2023-02-17T17:12:11.146Z,100190.42
2023-02-17T17:14:35.450Z,100173.23
2023-02-17T17:15:46.362Z,100177.92
2023-02-17T17:16:56.604Z,100178.72
2023-02-17T17:18:08.687Z,100171.59
2023-02-17T17:19:17.851Z,100175.70
2023-02-17T17:20:32.423Z,100171.84
2023-02-17T17:21:41.138Z,100178.73
2023-02-17T17:22:51.094Z,100164.58
2023-02-17T17:24:10.752Z,100169.92
2023-02-17T17:25:20.254Z,100167.44
2023-02-17T17:26:38.716Z,100164.05
2023-02-17T17:27:47.382Z,100164.20
2023-02-17T17:28:57.873Z,100159.09